sensor_id;sensor_type;location;lat;lon;timestamp;P1;durP1;ratioP1;P2;durP2;ratioP2
21243;SDS011;10780;50.942;4.028;2022-07-29T00:01:05;4.47;;;2.58;;
21243;SDS011;10780;50.942;4.028;2022-07-29T00:03:31;2.83;;;2.00;;
21243;SDS011;10780;50.942;4.028;2022-07-29T00:05:57;4.93;;;2.13;;
21243;SDS011;10780;50.942;4.028;2022-07-29T00:08:22;5.57;;;2.60;;
21243;SDS011;10780;50.942;4.028;2022-07-29T00:10:48;3.20;;;2.22;;
21243;SDS011;10780;50.942;4.028;2022-07-29T00:13:13;4.18;;;2.30;;
21243;SDS011;10780;50.942;4.028;2022-07-29T00:15:39;4.47;;;2.38;;
21243;SDS011;10780;50.942;4.028;2022-07-29T00:18:05;5.05;;;2.30;;
21243;SDS011;10780;50.942;4.028;2022-07-29T00:20:31;4.57;;;2.95;;
21243;SDS011;10780;50.942;4.028;2022-07-29T00:22:57;6.63;;;2.50;;
21243;SDS011;10780;50.942;4.028;2022-07-29T00:25:22;4.72;;;2.20;;
21243;SDS011;10780;50.942;4.028;2022-07-29T00:27:48;4.43;;;2.28;;
21243;SDS011;10780;50.942;4.028;2022-07-29T00:30:14;4.13;;;2.80;;
21243;SDS011;10780;50.942;4.028;2022-07-29T00:32:40;7.55;;;2.72;;
21243;SDS011;10780;50.942;4.028;2022-07-29T00:35:05;4.38;;;2.67;;
21243;SDS011;10780;50.942;4.028;2022-07-29T00:37:50;3.85;;;2.42;;
21243;SDS011;10780;50.942;4.028;2022-07-29T00:40:16;8.70;;;2.90;;
21243;SDS011;10780;50.942;4.028;2022-07-29T00:42:45;4.38;;;3.00;;
21243;SDS011;10780;50.942;4.028;2022-07-29T00:45:12;4.88;;;2.95;;
21243;SDS011;10780;50.942;4.028;2022-07-29T00:47:39;5.40;;;2.85;;
21243;SDS011;10780;50.942;4.028;2022-07-29T00:50:05;3.92;;;2.75;;
21243;SDS011;10780;50.942;4.028;2022-07-29T00:52:33;3.78;;;2.72;;
21243;SDS011;10780;50.942;4.028;2022-07-29T00:55:00;5.32;;;3.30;;
21243;SDS011;10780;50.942;4.028;2022-07-29T00:57:27;14.00;;;4.90;;
21243;SDS011;10780;50.942;4.028;2022-07-29T00:59:53;8.65;;;3.00;;
21243;SDS011;10780;50.942;4.028;2022-07-29T01:02:19;7.32;;;3.38;;
21243;SDS011;10780;50.942;4.028;2022-07-29T01:04:44;4.72;;;2.95;;
21243;SDS011;10780;50.942;4.028;2022-07-29T01:07:10;7.65;;;3.17;;
21243;SDS011;10780;50.942;4.028;2022-07-29T01:09:36;5.93;;;3.35;;
21243;SDS011;10780;50.942;4.028;2022-07-29T01:12:02;3.83;;;3.28;;
21243;SDS011;10780;50.942;4.028;2022-07-29T01:14:29;6.75;;;3.10;;
21243;SDS011;10780;50.942;4.028;2022-07-29T01:16:59;4.68;;;3.17;;
21243;SDS011;10780;50.942;4.028;2022-07-29T01:19:41;4.07;;;3.20;;
21243;SDS011;10780;50.942;4.028;2022-07-29T01:31:00;5.45;;;3.53;;
21243;SDS011;10780;50.942;4.028;2022-07-29T01:33:29;5.78;;;3.80;;
21243;SDS011;10780;50.942;4.028;2022-07-29T01:40:03;5.20;;;3.58;;
21243;SDS011;10780;50.942;4.028;2022-07-29T01:42:08;7.80;;;3.50;;
21243;SDS011;10780;50.942;4.028;2022-07-29T01:44:35;6.80;;;3.55;;
21243;SDS011;10780;50.942;4.028;2022-07-29T01:47:10;5.03;;;3.47;;
21243;SDS011;10780;50.942;4.028;2022-07-29T01:49:41;4.60;;;3.58;;
21243;SDS011;10780;50.942;4.028;2022-07-29T01:52:15;5.18;;;3.92;;
21243;SDS011;10780;50.942;4.028;2022-07-29T01:54:51;7.00;;;4.03;;
21243;SDS011;10780;50.942;4.028;2022-07-29T01:57:21;8.18;;;4.10;;
21243;SDS011;10780;50.942;4.028;2022-07-29T01:59:54;5.40;;;4.35;;
21243;SDS011;10780;50.942;4.028;2022-07-29T02:02:22;7.95;;;3.92;;
21243;SDS011;10780;50.942;4.028;2022-07-29T02:04:49;5.95;;;3.90;;
21243;SDS011;10780;50.942;4.028;2022-07-29T02:07:17;7.53;;;4.18;;
21243;SDS011;10780;50.942;4.028;2022-07-29T02:09:47;7.20;;;3.92;;
21243;SDS011;10780;50.942;4.028;2022-07-29T02:12:14;6.45;;;4.00;;
21243;SDS011;10780;50.942;4.028;2022-07-29T02:14:44;4.78;;;4.20;;
21243;SDS011;10780;50.942;4.028;2022-07-29T02:17:12;7.97;;;4.38;;
21243;SDS011;10780;50.942;4.028;2022-07-29T02:19:40;8.05;;;4.15;;
21243;SDS011;10780;50.942;4.028;2022-07-29T02:22:09;7.30;;;4.13;;
21243;SDS011;10780;50.942;4.028;2022-07-29T02:24:36;11.60;;;4.50;;
21243;SDS011;10780;50.942;4.028;2022-07-29T02:27:05;10.35;;;4.47;;
21243;SDS011;10780;50.942;4.028;2022-07-29T02:29:32;9.68;;;4.82;;
21243;SDS011;10780;50.942;4.028;2022-07-29T02:32:00;6.80;;;4.40;;
21243;SDS011;10780;50.942;4.028;2022-07-29T02:34:27;7.15;;;4.50;;
21243;SDS011;10780;50.942;4.028;2022-07-29T02:36:54;7.85;;;4.68;;
21243;SDS011;10780;50.942;4.028;2022-07-29T02:39:21;8.45;;;4.40;;
21243;SDS011;10780;50.942;4.028;2022-07-29T02:41:57;7.60;;;4.68;;
21243;SDS011;10780;50.942;4.028;2022-07-29T02:44:27;8.32;;;4.80;;
21243;SDS011;10780;50.942;4.028;2022-07-29T02:46:54;7.20;;;4.60;;
21243;SDS011;10780;50.942;4.028;2022-07-29T02:49:38;6.68;;;4.85;;
21243;SDS011;10780;50.942;4.028;2022-07-29T02:52:14;5.60;;;4.40;;
21243;SDS011;10780;50.942;4.028;2022-07-29T02:57:44;6.63;;;4.80;;
21243;SDS011;10780;50.942;4.028;2022-07-29T03:00:18;7.45;;;5.13;;
21243;SDS011;10780;50.942;4.028;2022-07-29T03:02:45;12.82;;;5.57;;
21243;SDS011;10780;50.942;4.028;2022-07-29T03:05:17;9.85;;;5.40;;
21243;SDS011;10780;50.942;4.028;2022-07-29T03:07:46;8.45;;;5.25;;
21243;SDS011;10780;50.942;4.028;2022-07-29T03:10:22;6.03;;;4.65;;
21243;SDS011;10780;50.942;4.028;2022-07-29T03:12:49;7.22;;;4.80;;
21243;SDS011;10780;50.942;4.028;2022-07-29T03:15:16;8.23;;;5.45;;
21243;SDS011;10780;50.942;4.028;2022-07-29T03:17:43;8.00;;;5.05;;
21243;SDS011;10780;50.942;4.028;2022-07-29T03:20:09;8.45;;;5.07;;
21243;SDS011;10780;50.942;4.028;2022-07-29T03:22:39;7.65;;;5.20;;
21243;SDS011;10780;50.942;4.028;2022-07-29T03:25:09;6.90;;;5.13;;
21243;SDS011;10780;50.942;4.028;2022-07-29T03:27:35;7.22;;;5.00;;
21243;SDS011;10780;50.942;4.028;2022-07-29T03:30:01;6.47;;;4.80;;
21243;SDS011;10780;50.942;4.028;2022-07-29T03:32:27;8.70;;;5.05;;
21243;SDS011;10780;50.942;4.028;2022-07-29T03:34:52;10.27;;;5.63;;
21243;SDS011;10780;50.942;4.028;2022-07-29T03:37:18;7.82;;;5.15;;
21243;SDS011;10780;50.942;4.028;2022-07-29T03:39:44;9.10;;;5.15;;
21243;SDS011;10780;50.942;4.028;2022-07-29T03:42:13;8.32;;;4.60;;
21243;SDS011;10780;50.942;4.028;2022-07-29T03:44:41;7.80;;;4.70;;
21243;SDS011;10780;50.942;4.028;2022-07-29T03:47:10;8.15;;;5.72;;
21243;SDS011;10780;50.942;4.028;2022-07-29T03:49:38;7.45;;;5.63;;
21243;SDS011;10780;50.942;4.028;2022-07-29T03:52:05;7.18;;;5.32;;
21243;SDS011;10780;50.942;4.028;2022-07-29T03:54:31;9.27;;;5.70;;
21243;SDS011;10780;50.942;4.028;2022-07-29T03:56:57;8.18;;;5.95;;
21243;SDS011;10780;50.942;4.028;2022-07-29T03:59:26;7.65;;;5.28;;
21243;SDS011;10780;50.942;4.028;2022-07-29T04:01:52;5.75;;;5.15;;
21243;SDS011;10780;50.942;4.028;2022-07-29T04:04:20;9.43;;;5.57;;
21243;SDS011;10780;50.942;4.028;2022-07-29T04:06:46;7.63;;;5.63;;
21243;SDS011;10780;50.942;4.028;2022-07-29T04:09:12;7.20;;;5.63;;
21243;SDS011;10780;50.942;4.028;2022-07-29T04:11:38;8.65;;;5.55;;
21243;SDS011;10780;50.942;4.028;2022-07-29T04:14:05;6.60;;;5.30;;
21243;SDS011;10780;50.942;4.028;2022-07-29T04:16:31;7.22;;;5.82;;
21243;SDS011;10780;50.942;4.028;2022-07-29T04:18:57;8.32;;;6.07;;
21243;SDS011;10780;50.942;4.028;2022-07-29T04:21:23;7.90;;;5.35;;
21243;SDS011;10780;50.942;4.028;2022-07-29T04:23:49;5.88;;;5.32;;
21243;SDS011;10780;50.942;4.028;2022-07-29T04:26:18;6.55;;;5.55;;
21243;SDS011;10780;50.942;4.028;2022-07-29T04:28:44;7.20;;;5.85;;
21243;SDS011;10780;50.942;4.028;2022-07-29T04:31:10;7.30;;;5.55;;
21243;SDS011;10780;50.942;4.028;2022-07-29T04:33:37;7.72;;;5.72;;
21243;SDS011;10780;50.942;4.028;2022-07-29T04:36:03;8.07;;;5.97;;
21243;SDS011;10780;50.942;4.028;2022-07-29T04:38:29;8.13;;;5.72;;
21243;SDS011;10780;50.942;4.028;2022-07-29T04:40:55;11.80;;;5.30;;
21243;SDS011;10780;50.942;4.028;2022-07-29T04:43:22;9.38;;;5.65;;
21243;SDS011;10780;50.942;4.028;2022-07-29T04:45:47;6.68;;;5.47;;
21243;SDS011;10780;50.942;4.028;2022-07-29T04:48:13;7.32;;;5.32;;
21243;SDS011;10780;50.942;4.028;2022-07-29T04:50:39;9.15;;;5.93;;
21243;SDS011;10780;50.942;4.028;2022-07-29T04:53:05;7.22;;;6.07;;
21243;SDS011;10780;50.942;4.028;2022-07-29T04:55:31;7.90;;;4.97;;
21243;SDS011;10780;50.942;4.028;2022-07-29T04:57:57;7.70;;;5.65;;
21243;SDS011;10780;50.942;4.028;2022-07-29T05:00:23;8.52;;;5.78;;
21243;SDS011;10780;50.942;4.028;2022-07-29T05:02:49;6.78;;;5.32;;
21243;SDS011;10780;50.942;4.028;2022-07-29T05:05:15;9.10;;;5.93;;
21243;SDS011;10780;50.942;4.028;2022-07-29T05:07:40;9.52;;;5.75;;
21243;SDS011;10780;50.942;4.028;2022-07-29T05:10:06;8.07;;;5.88;;
21243;SDS011;10780;50.942;4.028;2022-07-29T05:12:32;6.35;;;5.50;;
21243;SDS011;10780;50.942;4.028;2022-07-29T05:14:58;10.27;;;5.47;;
21243;SDS011;10780;50.942;4.028;2022-07-29T05:17:24;6.70;;;5.10;;
21243;SDS011;10780;50.942;4.028;2022-07-29T05:19:49;6.47;;;5.10;;
21243;SDS011;10780;50.942;4.028;2022-07-29T05:22:16;6.18;;;5.05;;
21243;SDS011;10780;50.942;4.028;2022-07-29T05:24:43;7.05;;;4.82;;
21243;SDS011;10780;50.942;4.028;2022-07-29T05:27:09;9.40;;;6.07;;
21243;SDS011;10780;50.942;4.028;2022-07-29T05:29:34;6.05;;;4.97;;
21243;SDS011;10780;50.942;4.028;2022-07-29T05:32:00;7.25;;;5.72;;
21243;SDS011;10780;50.942;4.028;2022-07-29T05:34:26;8.98;;;5.82;;
21243;SDS011;10780;50.942;4.028;2022-07-29T05:36:51;6.90;;;5.03;;
21243;SDS011;10780;50.942;4.028;2022-07-29T05:39:17;9.35;;;5.80;;
21243;SDS011;10780;50.942;4.028;2022-07-29T05:41:43;7.63;;;5.40;;
21243;SDS011;10780;50.942;4.028;2022-07-29T05:44:08;8.15;;;5.53;;
21243;SDS011;10780;50.942;4.028;2022-07-29T05:46:34;6.03;;;5.43;;
21243;SDS011;10780;50.942;4.028;2022-07-29T05:48:59;8.45;;;5.68;;
21243;SDS011;10780;50.942;4.028;2022-07-29T05:51:26;9.35;;;5.40;;
21243;SDS011;10780;50.942;4.028;2022-07-29T05:53:51;7.60;;;5.68;;
21243;SDS011;10780;50.942;4.028;2022-07-29T05:56:17;9.32;;;6.00;;
21243;SDS011;10780;50.942;4.028;2022-07-29T05:58:43;6.47;;;5.70;;
21243;SDS011;10780;50.942;4.028;2022-07-29T06:01:08;6.80;;;5.47;;
21243;SDS011;10780;50.942;4.028;2022-07-29T06:03:34;9.20;;;5.90;;
21243;SDS011;10780;50.942;4.028;2022-07-29T06:05:59;9.23;;;6.40;;
21243;SDS011;10780;50.942;4.028;2022-07-29T06:08:25;8.57;;;6.32;;
21243;SDS011;10780;50.942;4.028;2022-07-29T06:10:51;6.75;;;5.60;;
21243;SDS011;10780;50.942;4.028;2022-07-29T06:13:16;9.68;;;5.80;;
21243;SDS011;10780;50.942;4.028;2022-07-29T06:15:42;8.60;;;6.10;;
21243;SDS011;10780;50.942;4.028;2022-07-29T06:18:08;8.45;;;5.60;;
21243;SDS011;10780;50.942;4.028;2022-07-29T06:20:35;10.18;;;5.82;;
21243;SDS011;10780;50.942;4.028;2022-07-29T06:23:00;8.15;;;6.43;;
21243;SDS011;10780;50.942;4.028;2022-07-29T06:25:29;7.63;;;6.20;;
21243;SDS011;10780;50.942;4.028;2022-07-29T06:27:55;10.73;;;5.90;;
21243;SDS011;10780;50.942;4.028;2022-07-29T06:30:21;7.78;;;5.70;;
21243;SDS011;10780;50.942;4.028;2022-07-29T06:32:46;6.35;;;5.75;;
21243;SDS011;10780;50.942;4.028;2022-07-29T06:35:12;7.10;;;6.10;;
21243;SDS011;10780;50.942;4.028;2022-07-29T06:37:38;7.07;;;6.38;;
21243;SDS011;10780;50.942;4.028;2022-07-29T06:40:04;11.35;;;6.40;;
21243;SDS011;10780;50.942;4.028;2022-07-29T06:42:48;11.05;;;6.15;;
21243;SDS011;10780;50.942;4.028;2022-07-29T06:45:14;9.18;;;6.55;;
21243;SDS011;10780;50.942;4.028;2022-07-29T06:47:41;8.88;;;5.70;;
21243;SDS011;10780;50.942;4.028;2022-07-29T06:50:06;8.38;;;6.07;;
21243;SDS011;10780;50.942;4.028;2022-07-29T06:52:36;8.50;;;5.90;;
21243;SDS011;10780;50.942;4.028;2022-07-29T06:55:01;9.52;;;6.05;;
21243;SDS011;10780;50.942;4.028;2022-07-29T06:57:27;8.15;;;6.00;;
21243;SDS011;10780;50.942;4.028;2022-07-29T06:59:53;7.25;;;6.55;;
21243;SDS011;10780;50.942;4.028;2022-07-29T07:02:20;6.80;;;6.10;;
21243;SDS011;10780;50.942;4.028;2022-07-29T07:04:46;6.50;;;5.88;;
21243;SDS011;10780;50.942;4.028;2022-07-29T07:07:12;7.65;;;5.97;;
21243;SDS011;10780;50.942;4.028;2022-07-29T07:09:37;8.38;;;6.13;;
21243;SDS011;10780;50.942;4.028;2022-07-29T07:12:03;8.75;;;6.05;;
21243;SDS011;10780;50.942;4.028;2022-07-29T07:14:29;9.65;;;5.53;;
21243;SDS011;10780;50.942;4.028;2022-07-29T07:16:54;8.77;;;6.28;;
21243;SDS011;10780;50.942;4.028;2022-07-29T07:19:20;7.72;;;5.68;;
21243;SDS011;10780;50.942;4.028;2022-07-29T07:21:45;9.63;;;5.75;;
21243;SDS011;10780;50.942;4.028;2022-07-29T07:24:11;8.68;;;6.07;;
21243;SDS011;10780;50.942;4.028;2022-07-29T07:26:36;6.32;;;5.65;;
21243;SDS011;10780;50.942;4.028;2022-07-29T07:29:04;6.82;;;5.70;;
21243;SDS011;10780;50.942;4.028;2022-07-29T07:31:30;8.10;;;5.85;;
21243;SDS011;10780;50.942;4.028;2022-07-29T07:33:56;8.20;;;5.60;;
21243;SDS011;10780;50.942;4.028;2022-07-29T07:36:22;6.32;;;5.57;;
21243;SDS011;10780;50.942;4.028;2022-07-29T07:38:48;7.85;;;5.18;;
21243;SDS011;10780;50.942;4.028;2022-07-29T07:41:14;6.85;;;5.63;;
21243;SDS011;10780;50.942;4.028;2022-07-29T07:43:39;7.13;;;6.22;;
21243;SDS011;10780;50.942;4.028;2022-07-29T07:46:05;14.25;;;5.95;;
21243;SDS011;10780;50.942;4.028;2022-07-29T07:48:30;6.47;;;5.63;;
21243;SDS011;10780;50.942;4.028;2022-07-29T07:50:56;9.80;;;5.78;;
21243;SDS011;10780;50.942;4.028;2022-07-29T07:53:22;8.27;;;6.28;;
21243;SDS011;10780;50.942;4.028;2022-07-29T07:55:47;9.68;;;5.82;;
21243;SDS011;10780;50.942;4.028;2022-07-29T07:58:13;10.13;;;6.00;;
21243;SDS011;10780;50.942;4.028;2022-07-29T08:00:39;12.38;;;6.78;;
21243;SDS011;10780;50.942;4.028;2022-07-29T08:03:04;7.88;;;6.13;;
21243;SDS011;10780;50.942;4.028;2022-07-29T08:05:30;8.65;;;6.47;;
21243;SDS011;10780;50.942;4.028;2022-07-29T08:07:55;8.98;;;6.28;;
21243;SDS011;10780;50.942;4.028;2022-07-29T08:10:21;10.18;;;7.20;;
21243;SDS011;10780;50.942;4.028;2022-07-29T08:13:05;7.70;;;6.47;;
21243;SDS011;10780;50.942;4.028;2022-07-29T08:15:32;9.00;;;5.85;;
21243;SDS011;10780;50.942;4.028;2022-07-29T08:17:58;9.27;;;6.05;;
21243;SDS011;10780;50.942;4.028;2022-07-29T08:20:24;8.10;;;6.45;;
21243;SDS011;10780;50.942;4.028;2022-07-29T08:22:50;8.93;;;6.10;;
21243;SDS011;10780;50.942;4.028;2022-07-29T08:25:16;8.02;;;6.35;;
21243;SDS011;10780;50.942;4.028;2022-07-29T08:27:45;7.07;;;6.32;;
21243;SDS011;10780;50.942;4.028;2022-07-29T08:30:13;7.82;;;5.78;;
21243;SDS011;10780;50.942;4.028;2022-07-29T08:32:39;7.20;;;5.97;;
21243;SDS011;10780;50.942;4.028;2022-07-29T08:35:05;7.03;;;5.90;;
21243;SDS011;10780;50.942;4.028;2022-07-29T08:37:31;7.28;;;6.13;;
21243;SDS011;10780;50.942;4.028;2022-07-29T08:39:56;7.55;;;6.15;;
21243;SDS011;10780;50.942;4.028;2022-07-29T08:42:22;9.77;;;6.60;;
21243;SDS011;10780;50.942;4.028;2022-07-29T08:44:48;10.57;;;6.45;;
21243;SDS011;10780;50.942;4.028;2022-07-29T08:47:13;6.90;;;6.20;;
21243;SDS011;10780;50.942;4.028;2022-07-29T08:49:39;7.93;;;6.25;;
21243;SDS011;10780;50.942;4.028;2022-07-29T08:52:05;9.13;;;6.38;;
21243;SDS011;10780;50.942;4.028;2022-07-29T08:54:31;10.90;;;7.03;;
21243;SDS011;10780;50.942;4.028;2022-07-29T08:56:57;9.60;;;6.90;;
21243;SDS011;10780;50.942;4.028;2022-07-29T08:59:25;7.10;;;6.40;;
21243;SDS011;10780;50.942;4.028;2022-07-29T09:01:53;8.48;;;6.50;;
21243;SDS011;10780;50.942;4.028;2022-07-29T09:04:19;7.95;;;5.95;;
21243;SDS011;10780;50.942;4.028;2022-07-29T09:06:49;9.05;;;5.88;;
21243;SDS011;10780;50.942;4.028;2022-07-29T09:09:16;7.82;;;5.85;;
21243;SDS011;10780;50.942;4.028;2022-07-29T09:11:42;10.40;;;6.40;;
21243;SDS011;10780;50.942;4.028;2022-07-29T09:14:10;8.80;;;6.20;;
21243;SDS011;10780;50.942;4.028;2022-07-29T09:16:44;8.13;;;5.57;;
21243;SDS011;10780;50.942;4.028;2022-07-29T09:19:21;6.43;;;5.50;;
21243;SDS011;10780;50.942;4.028;2022-07-29T09:21:48;7.88;;;5.55;;
21243;SDS011;10780;50.942;4.028;2022-07-29T09:24:23;8.20;;;6.18;;
21243;SDS011;10780;50.942;4.028;2022-07-29T09:26:59;7.18;;;6.20;;
21243;SDS011;10780;50.942;4.028;2022-07-29T09:29:25;8.73;;;6.18;;
21243;SDS011;10780;50.942;4.028;2022-07-29T09:31:52;8.02;;;6.55;;
21243;SDS011;10780;50.942;4.028;2022-07-29T09:34:26;8.50;;;6.63;;
21243;SDS011;10780;50.942;4.028;2022-07-29T09:36:53;7.47;;;6.00;;
21243;SDS011;10780;50.942;4.028;2022-07-29T09:39:29;8.43;;;6.05;;
21243;SDS011;10780;50.942;4.028;2022-07-29T09:41:58;11.30;;;7.22;;
21243;SDS011;10780;50.942;4.028;2022-07-29T09:44:41;8.25;;;6.10;;
21243;SDS011;10780;50.942;4.028;2022-07-29T09:47:08;9.02;;;6.75;;
21243;SDS011;10780;50.942;4.028;2022-07-29T09:49:34;9.27;;;6.85;;
21243;SDS011;10780;50.942;4.028;2022-07-29T09:52:09;9.25;;;6.65;;
21243;SDS011;10780;50.942;4.028;2022-07-29T09:54:36;6.47;;;5.40;;
21243;SDS011;10780;50.942;4.028;2022-07-29T09:57:02;7.22;;;5.03;;
21243;SDS011;10780;50.942;4.028;2022-07-29T09:59:34;7.85;;;4.10;;
21243;SDS011;10780;50.942;4.028;2022-07-29T10:02:00;7.30;;;4.70;;
21243;SDS011;10780;50.942;4.028;2022-07-29T10:04:36;7.75;;;4.35;;
21243;SDS011;10780;50.942;4.028;2022-07-29T10:07:03;7.10;;;4.40;;
21243;SDS011;10780;50.942;4.028;2022-07-29T10:09:30;7.00;;;3.75;;
21243;SDS011;10780;50.942;4.028;2022-07-29T10:12:06;7.05;;;4.45;;
21243;SDS011;10780;50.942;4.028;2022-07-29T10:14:38;6.88;;;4.20;;
21243;SDS011;10780;50.942;4.028;2022-07-29T10:17:05;8.75;;;3.97;;
21243;SDS011;10780;50.942;4.028;2022-07-29T10:19:32;4.18;;;3.70;;
21243;SDS011;10780;50.942;4.028;2022-07-29T10:21:59;6.53;;;4.13;;
21243;SDS011;10780;50.942;4.028;2022-07-29T10:24:27;6.22;;;3.28;;
21243;SDS011;10780;50.942;4.028;2022-07-29T10:26:54;6.15;;;4.18;;
21243;SDS011;10780;50.942;4.028;2022-07-29T10:29:22;7.10;;;3.60;;
21243;SDS011;10780;50.942;4.028;2022-07-29T10:31:50;5.40;;;3.78;;
21243;SDS011;10780;50.942;4.028;2022-07-29T10:34:22;5.20;;;4.53;;
21243;SDS011;10780;50.942;4.028;2022-07-29T10:36:56;6.40;;;4.28;;
21243;SDS011;10780;50.942;4.028;2022-07-29T10:42:23;4.22;;;3.22;;
21243;SDS011;10780;50.942;4.028;2022-07-29T10:44:51;6.38;;;3.58;;
21243;SDS011;10780;50.942;4.028;2022-07-29T10:52:51;4.55;;;2.92;;
21243;SDS011;10780;50.942;4.028;2022-07-29T10:55:31;2.92;;;2.63;;
21243;SDS011;10780;50.942;4.028;2022-07-29T10:58:11;6.30;;;3.53;;
21243;SDS011;10780;50.942;4.028;2022-07-29T11:00:41;3.92;;;2.30;;
21243;SDS011;10780;50.942;4.028;2022-07-29T11:03:06;5.38;;;2.70;;
21243;SDS011;10780;50.942;4.028;2022-07-29T11:05:51;4.38;;;2.90;;
21243;SDS011;10780;50.942;4.028;2022-07-29T11:08:21;5.18;;;3.30;;
21243;SDS011;10780;50.942;4.028;2022-07-29T11:10:48;3.55;;;2.80;;
21243;SDS011;10780;50.942;4.028;2022-07-29T11:16:12;3.65;;;2.95;;
21243;SDS011;10780;50.942;4.028;2022-07-29T11:21:36;3.85;;;2.70;;
21243;SDS011;10780;50.942;4.028;2022-07-29T11:26:44;5.50;;;2.90;;
21243;SDS011;10780;50.942;4.028;2022-07-29T11:31:43;6.35;;;3.40;;
21243;SDS011;10780;50.942;4.028;2022-07-29T11:39:31;6.70;;;3.38;;
21243;SDS011;10780;50.942;4.028;2022-07-29T11:45:00;4.18;;;3.13;;
21243;SDS011;10780;50.942;4.028;2022-07-29T11:47:37;5.10;;;2.78;;
21243;SDS011;10780;50.942;4.028;2022-07-29T11:50:13;7.50;;;2.85;;
21243;SDS011;10780;50.942;4.028;2022-07-29T11:52:42;3.75;;;2.80;;
21243;SDS011;10780;50.942;4.028;2022-07-29T11:55:16;4.60;;;2.85;;
21243;SDS011;10780;50.942;4.028;2022-07-29T11:57:47;10.90;;;3.00;;
21243;SDS011;10780;50.942;4.028;2022-07-29T12:00:16;3.33;;;2.85;;
21243;SDS011;10780;50.942;4.028;2022-07-29T12:02:59;11.80;;;3.00;;
21243;SDS011;10780;50.942;4.028;2022-07-29T12:05:45;4.72;;;3.03;;
21243;SDS011;10780;50.942;4.028;2022-07-29T12:08:14;5.15;;;2.92;;
21243;SDS011;10780;50.942;4.028;2022-07-29T12:10:44;5.80;;;3.15;;
21243;SDS011;10780;50.942;4.028;2022-07-29T12:13:11;5.30;;;3.03;;
21243;SDS011;10780;50.942;4.028;2022-07-29T12:15:37;5.53;;;2.90;;
21243;SDS011;10780;50.942;4.028;2022-07-29T12:18:17;6.40;;;2.72;;
21243;SDS011;10780;50.942;4.028;2022-07-29T12:20:45;5.50;;;3.10;;
21243;SDS011;10780;50.942;4.028;2022-07-29T12:23:12;5.80;;;2.92;;
21243;SDS011;10780;50.942;4.028;2022-07-29T12:25:40;7.88;;;3.13;;
21243;SDS011;10780;50.942;4.028;2022-07-29T12:28:07;2.88;;;2.60;;
21243;SDS011;10780;50.942;4.028;2022-07-29T12:30:41;7.47;;;3.00;;
21243;SDS011;10780;50.942;4.028;2022-07-29T12:33:13;3.92;;;2.97;;
21243;SDS011;10780;50.942;4.028;2022-07-29T12:35:47;4.85;;;3.42;;
21243;SDS011;10780;50.942;4.028;2022-07-29T12:38:15;3.33;;;2.72;;
21243;SDS011;10780;50.942;4.028;2022-07-29T12:40:41;4.50;;;3.15;;
21243;SDS011;10780;50.942;4.028;2022-07-29T12:43:09;4.78;;;3.20;;
21243;SDS011;10780;50.942;4.028;2022-07-29T12:45:36;4.60;;;2.60;;
21243;SDS011;10780;50.942;4.028;2022-07-29T12:48:06;3.40;;;3.10;;
21243;SDS011;10780;50.942;4.028;2022-07-29T12:50:33;4.47;;;2.72;;
21243;SDS011;10780;50.942;4.028;2022-07-29T12:53:10;6.20;;;3.35;;
21243;SDS011;10780;50.942;4.028;2022-07-29T12:55:38;4.18;;;3.75;;
21243;SDS011;10780;50.942;4.028;2022-07-29T12:58:14;6.47;;;4.93;;
21243;SDS011;10780;50.942;4.028;2022-07-29T13:01:05;5.35;;;3.90;;
21243;SDS011;10780;50.942;4.028;2022-07-29T13:06:41;3.47;;;3.08;;
21243;SDS011;10780;50.942;4.028;2022-07-29T13:09:14;4.15;;;3.17;;
21243;SDS011;10780;50.942;4.028;2022-07-29T13:11:45;5.22;;;3.17;;
21243;SDS011;10780;50.942;4.028;2022-07-29T13:14:34;5.10;;;2.95;;
21243;SDS011;10780;50.942;4.028;2022-07-29T13:17:05;6.43;;;3.50;;
21243;SDS011;10780;50.942;4.028;2022-07-29T13:19:39;4.13;;;3.30;;
21243;SDS011;10780;50.942;4.028;2022-07-29T13:22:05;4.90;;;3.95;;
21243;SDS011;10780;50.942;4.028;2022-07-29T13:24:32;5.57;;;3.58;;
21243;SDS011;10780;50.942;4.028;2022-07-29T13:26:58;7.30;;;4.03;;
21243;SDS011;10780;50.942;4.028;2022-07-29T13:29:24;4.72;;;3.88;;
21243;SDS011;10780;50.942;4.028;2022-07-29T13:31:51;4.95;;;3.88;;
21243;SDS011;10780;50.942;4.028;2022-07-29T13:34:17;5.75;;;4.50;;
21243;SDS011;10780;50.942;4.028;2022-07-29T13:36:44;7.30;;;4.97;;
21243;SDS011;10780;50.942;4.028;2022-07-29T13:39:10;6.85;;;5.05;;
21243;SDS011;10780;50.942;4.028;2022-07-29T13:41:36;7.38;;;6.35;;
21243;SDS011;10780;50.942;4.028;2022-07-29T13:44:02;9.60;;;6.53;;
21243;SDS011;10780;50.942;4.028;2022-07-29T13:46:27;7.38;;;5.90;;
21243;SDS011;10780;50.942;4.028;2022-07-29T13:48:53;6.38;;;5.78;;
21243;SDS011;10780;50.942;4.028;2022-07-29T13:51:19;9.82;;;7.00;;
21243;SDS011;10780;50.942;4.028;2022-07-29T13:53:44;7.82;;;5.97;;
21243;SDS011;10780;50.942;4.028;2022-07-29T13:56:10;7.80;;;6.38;;
21243;SDS011;10780;50.942;4.028;2022-07-29T13:58:35;6.85;;;5.82;;
21243;SDS011;10780;50.942;4.028;2022-07-29T14:01:01;10.95;;;7.70;;
21243;SDS011;10780;50.942;4.028;2022-07-29T14:03:27;10.00;;;6.88;;
21243;SDS011;10780;50.942;4.028;2022-07-29T14:05:53;7.22;;;6.13;;
21243;SDS011;10780;50.942;4.028;2022-07-29T14:08:19;9.35;;;6.68;;
21243;SDS011;10780;50.942;4.028;2022-07-29T14:10:44;7.43;;;5.93;;
21243;SDS011;10780;50.942;4.028;2022-07-29T14:13:10;7.32;;;5.50;;
21243;SDS011;10780;50.942;4.028;2022-07-29T14:15:36;11.25;;;6.20;;
21243;SDS011;10780;50.942;4.028;2022-07-29T14:18:01;7.47;;;6.00;;
21243;SDS011;10780;50.942;4.028;2022-07-29T14:20:27;6.32;;;5.53;;
21243;SDS011;10780;50.942;4.028;2022-07-29T14:22:54;7.65;;;5.68;;
21243;SDS011;10780;50.942;4.028;2022-07-29T14:25:21;6.55;;;4.95;;
21243;SDS011;10780;50.942;4.028;2022-07-29T14:27:47;8.95;;;5.15;;
21243;SDS011;10780;50.942;4.028;2022-07-29T14:30:12;7.53;;;5.88;;
21243;SDS011;10780;50.942;4.028;2022-07-29T14:32:38;7.88;;;5.22;;
21243;SDS011;10780;50.942;4.028;2022-07-29T14:35:05;8.05;;;5.28;;
21243;SDS011;10780;50.942;4.028;2022-07-29T14:37:31;5.95;;;4.45;;
21243;SDS011;10780;50.942;4.028;2022-07-29T14:39:57;5.93;;;4.15;;
21243;SDS011;10780;50.942;4.028;2022-07-29T14:42:26;7.28;;;4.13;;
21243;SDS011;10780;50.942;4.028;2022-07-29T14:44:52;7.75;;;3.88;;
21243;SDS011;10780;50.942;4.028;2022-07-29T14:47:17;6.00;;;3.28;;
21243;SDS011;10780;50.942;4.028;2022-07-29T14:49:44;3.58;;;3.28;;
21243;SDS011;10780;50.942;4.028;2022-07-29T14:52:10;6.47;;;3.63;;
21243;SDS011;10780;50.942;4.028;2022-07-29T14:54:35;5.22;;;3.30;;
21243;SDS011;10780;50.942;4.028;2022-07-29T14:57:01;4.65;;;3.40;;
21243;SDS011;10780;50.942;4.028;2022-07-29T14:59:26;3.88;;;3.08;;
21243;SDS011;10780;50.942;4.028;2022-07-29T15:01:52;6.32;;;2.78;;
21243;SDS011;10780;50.942;4.028;2022-07-29T15:04:18;5.18;;;2.88;;
21243;SDS011;10780;50.942;4.028;2022-07-29T15:06:43;4.00;;;2.60;;
21243;SDS011;10780;50.942;4.028;2022-07-29T15:09:09;6.55;;;2.53;;
21243;SDS011;10780;50.942;4.028;2022-07-29T15:11:35;4.10;;;2.50;;
21243;SDS011;10780;50.942;4.028;2022-07-29T15:14:00;3.38;;;3.08;;
21243;SDS011;10780;50.942;4.028;2022-07-29T15:16:26;4.03;;;2.80;;
21243;SDS011;10780;50.942;4.028;2022-07-29T15:18:52;4.95;;;2.60;;
21243;SDS011;10780;50.942;4.028;2022-07-29T15:21:17;5.85;;;2.63;;
21243;SDS011;10780;50.942;4.028;2022-07-29T15:23:43;4.72;;;2.78;;
21243;SDS011;10780;50.942;4.028;2022-07-29T15:26:08;5.18;;;3.15;;
21243;SDS011;10780;50.942;4.028;2022-07-29T15:28:34;5.95;;;2.95;;
21243;SDS011;10780;50.942;4.028;2022-07-29T15:31:00;3.97;;;3.03;;
21243;SDS011;10780;50.942;4.028;2022-07-29T15:33:25;5.30;;;3.47;;
21243;SDS011;10780;50.942;4.028;2022-07-29T15:35:51;3.95;;;3.30;;
21243;SDS011;10780;50.942;4.028;2022-07-29T15:38:17;4.80;;;2.70;;